Ripple Effect — CFK9060 — position and weather

sailwx.info

Track history (hours):
 
Tides and Currents Weather Stations Pressure Air Temp Water Temp Dewpoint Dewpoint Depression Visibility Wind Speed Wind Dir Waves Ship Positions

Ripple Effect

Last reported at 2016-Jun-24 23:20 UTC. Time now 2016-Jul-31 01:38 UTC.
Position N 49°12' W 122°54'.
Warning: this ship's position is 36 days out of date.

Length 10 m.

Type: Pleasure craft. MMSI: 316009045.

Date/timePositionNaut miles runAvg speedWind from/ knotsBaromVisibWave heightAir tempDewpointWater temp
2016-Jun-24 23:20N 49°12' W 122°54'1416.3
2016-Jun-24 22:30N 49°08' W 123°14'4020.5
2016-Jun-24 20:33N 48°28' W 123°16'5 2.5
2016-Jun-24 18:27N 48°25' W 123°23'3114.1
2016-Jun-24 16:17N 48°26' W 124°09'1418.4
2016-Jun-24 15:31N 48°33' W 124°28'2 1.6
2016-Jun-24 14:21N 48°33' W 124°25'0 0.0
2016-Jun-24 11:18N 48°33' W 124°25'2 0.2
2016-Jun-24 02:32N 48°34' W 124°27'9 0.7
2016-Jun-23 13:32N 48°31' W 124°41'11 0.8
2016-Jun-23 00:31N 48°33' W 124°25'18 1.8
2016-Jun-22 14:16N 48°30' W 124°52'1318.4
2016-Jun-22 13:33N 48°32' W 124°32'5 0.4
2016-Jun-22 01:04N 48°33' W 124°25'1 2.1
2016-Jun-22 00:32N 48°34' W 124°27'4 4.0
2016-Jun-21 23:33N 48°33' W 124°32'0 0.3
2016-Jun-21 22:31N 48°33' W 124°32'0 0.1
2016-Jun-21 21:19N 48°33' W 124°32'0 0.6
2016-Jun-21 20:33N 48°33' W 124°33'3 2.4
2016-Jun-21 19:31N 48°34' W 124°37'2 1.8
2016-Jun-21 18:32N 48°34' W 124°39'0 0.5
2016-Jun-21 17:33N 48°34' W 124°40'0 0.1
2016-Jun-21 16:33N 48°34' W 124°40'6 2.9
2016-Jun-21 14:29N 48°34' W 124°49'1414.5
2016-Jun-21 13:32N 48°33' W 124°28'2 1.8
2016-Jun-21 12:22N 48°33' W 124°25'0 0.0
2016-Jun-21 11:13N 48°33' W 124°25'0 0.0
2016-Jun-21 10:28N 48°33' W 124°25'0 0.0
2016-Jun-21 09:22N 48°33' W 124°25'0 0.0
2016-Jun-21 08:28N 48°33' W 124°25'0 0.0
2016-Jun-21 07:28N 48°33' W 124°25'0 0.0
2016-Jun-21 06:28N 48°33' W 124°25'0 0.0
2016-Jun-21 04:28N 48°33' W 124°25'0 0.0
2016-Jun-21 03:28N 48°33' W 124°25'0 0.0
2016-Jun-21 02:25N 48°33' W 124°25'0 0.0
2016-Jun-21 01:16N 48°33' W 124°25'0 0.0
2016-Jun-21 00:33N 48°33' W 124°25'5 5.0
2016-Jun-20 23:33N 48°33' W 124°33'1 0.7
2016-Jun-20 22:33N 48°33' W 124°32'1 0.5
2016-Jun-20 21:32N 48°33' W 124°32'3 2.6
2016-Jun-20 20:33N 48°34' W 124°36'1 0.0
2016-Jun-19 16:25N 48°33' W 124°34'0 0.4
2016-Jun-19 15:31N 48°33' W 124°34'4 3.8
2016-Jun-19 14:29N 48°33' W 124°28'2 2.1
2016-Jun-19 13:31N 48°33' W 124°25'0 0.0
2016-Jun-19 04:31N 48°33' W 124°25'0 0.0
2016-Jun-19 03:13N 48°33' W 124°25'0 0.0
2016-Jun-19 02:31N 48°33' W 124°25'3 3.1
2016-Jun-19 01:29N 48°30' W 124°25'4019.9
2016-Jun-18 23:29N 48°23' W 123°26'5 5.1
2016-Jun-18 22:34N 48°23' W 123°19'3023.5
2016-Jun-18 21:17N 48°53' W 123°18'1518.9
2016-Jun-18 20:30N 49°07' W 123°11'  
Track history (hours):
 
Tides and Currents Weather Stations Pressure Air Temp Water Temp Dewpoint Dewpoint Depression Visibility Wind Speed Wind Dir Waves Ship Positions

Ripple Effect

Last reported at 2016-Jun-24 23:20 UTC. Time now 2016-Jul-31 01:38 UTC.
Position N 49°12' W 122°54'.
Warning: this ship's position is 36 days out of date.

Length 10 m.

Type: Pleasure craft. MMSI: 316009045.

Date/timePositionNaut miles runAvg speedWind from/ knotsBaromVisibWave heightAir tempDewpointWater temp
2016-Jun-24 23:20N 49°12' W 122°54'1416.3
2016-Jun-24 22:30N 49°08' W 123°14'4020.5
2016-Jun-24 20:33N 48°28' W 123°16'5 2.5
2016-Jun-24 18:27N 48°25' W 123°23'3114.1
2016-Jun-24 16:17N 48°26' W 124°09'1418.4
2016-Jun-24 15:31N 48°33' W 124°28'2 1.6
2016-Jun-24 14:21N 48°33' W 124°25'0 0.0
2016-Jun-24 11:18N 48°33' W 124°25'2 0.2
2016-Jun-24 02:32N 48°34' W 124°27'9 0.7
2016-Jun-23 13:32N 48°31' W 124°41'11 0.8
2016-Jun-23 00:31N 48°33' W 124°25'18 1.8
2016-Jun-22 14:16N 48°30' W 124°52'1318.4
2016-Jun-22 13:33N 48°32' W 124°32'5 0.4
2016-Jun-22 01:04N 48°33' W 124°25'1 2.1
2016-Jun-22 00:32N 48°34' W 124°27'4 4.0
2016-Jun-21 23:33N 48°33' W 124°32'0 0.3
2016-Jun-21 22:31N 48°33' W 124°32'0 0.1
2016-Jun-21 21:19N 48°33' W 124°32'0 0.6
2016-Jun-21 20:33N 48°33' W 124°33'3 2.4
2016-Jun-21 19:31N 48°34' W 124°37'2 1.8
2016-Jun-21 18:32N 48°34' W 124°39'0 0.5
2016-Jun-21 17:33N 48°34' W 124°40'0 0.1
2016-Jun-21 16:33N 48°34' W 124°40'6 2.9
2016-Jun-21 14:29N 48°34' W 124°49'1414.5
2016-Jun-21 13:32N 48°33' W 124°28'2 1.8
2016-Jun-21 12:22N 48°33' W 124°25'0 0.0
2016-Jun-21 11:13N 48°33' W 124°25'0 0.0
2016-Jun-21 10:28N 48°33' W 124°25'0 0.0
2016-Jun-21 09:22N 48°33' W 124°25'0 0.0
2016-Jun-21 08:28N 48°33' W 124°25'0 0.0
2016-Jun-21 07:28N 48°33' W 124°25'0 0.0
2016-Jun-21 06:28N 48°33' W 124°25'0 0.0
2016-Jun-21 04:28N 48°33' W 124°25'0 0.0
2016-Jun-21 03:28N 48°33' W 124°25'0 0.0
2016-Jun-21 02:25N 48°33' W 124°25'0 0.0
2016-Jun-21 01:16N 48°33' W 124°25'0 0.0
2016-Jun-21 00:33N 48°33' W 124°25'5 5.0
2016-Jun-20 23:33N 48°33' W 124°33'1 0.7
2016-Jun-20 22:33N 48°33' W 124°32'1 0.5
2016-Jun-20 21:32N 48°33' W 124°32'3 2.6
2016-Jun-20 20:33N 48°34' W 124°36'1 0.0
2016-Jun-19 16:25N 48°33' W 124°34'0 0.4
2016-Jun-19 15:31N 48°33' W 124°34'4 3.8
2016-Jun-19 14:29N 48°33' W 124°28'2 2.1
2016-Jun-19 13:31N 48°33' W 124°25'0 0.0
2016-Jun-19 04:31N 48°33' W 124°25'0 0.0
2016-Jun-19 03:13N 48°33' W 124°25'0 0.0
2016-Jun-19 02:31N 48°33' W 124°25'3 3.1
2016-Jun-19 01:29N 48°30' W 124°25'4019.9
2016-Jun-18 23:29N 48°23' W 123°26'5 5.1
2016-Jun-18 22:34N 48°23' W 123°19'3023.5
2016-Jun-18 21:17N 48°53' W 123°18'1518.9
2016-Jun-18 20:30N 49°07' W 123°11'  

Dump ship's entire track history